createdAt,value
2019-03-01T00:06:37.252Z,12.57
2019-03-01T00:11:18.249Z,11.53
2019-03-01T00:16:00.790Z,13.80
2019-03-01T00:20:43.331Z,8.67
2019-03-01T00:25:23.958Z,8.20
2019-03-01T00:30:04.667Z,8.80
2019-03-01T00:34:45.323Z,7.23
2019-03-01T00:39:26.022Z,9.90
2019-03-01T00:44:08.649Z,7.77
2019-03-01T00:48:29.412Z,11.93
2019-03-01T00:52:50.248Z,8.33
2019-03-01T00:57:11.167Z,8.30
2019-03-01T01:01:31.930Z,7.70
2019-03-01T01:05:52.778Z,9.33
2019-03-01T01:10:13.622Z,10.10
2019-03-01T01:14:34.478Z,9.67
2019-03-01T01:18:55.221Z,9.10
2019-03-01T01:23:15.974Z,12.47
2019-03-01T01:27:36.714Z,9.00
2019-03-01T01:31:57.477Z,12.43
2019-03-01T01:36:18.324Z,11.10
2019-03-01T01:40:32.688Z,12.23
2019-03-01T01:44:47.396Z,14.13
2019-03-01T01:49:01.909Z,16.03
2019-03-01T01:53:16.556Z,9.27
2019-03-01T01:57:30.988Z,14.07
2019-03-01T02:01:45.611Z,17.47
2019-03-01T02:06:00.323Z,12.93
2019-03-01T02:10:14.111Z,12.17
2019-03-01T02:14:28.849Z,13.30
2019-03-01T02:18:43.141Z,16.20
2019-03-01T02:22:57.847Z,8.17
2019-03-01T02:27:11.844Z,7.90
2019-03-01T02:31:26.496Z,8.97
2019-03-01T02:35:41.093Z,12.10
2019-03-01T02:39:54.842Z,14.13
2019-03-01T02:44:09.542Z,13.37
2019-03-01T02:48:24.341Z,11.63
2019-03-01T02:52:41.589Z,7.43
2019-03-01T02:56:55.438Z,9.80
2019-03-01T03:01:09.233Z,11.60
2019-03-01T03:05:24.049Z,11.00
2019-03-01T03:09:38.814Z,8.77
2019-03-01T03:13:53.599Z,6.53
2019-03-01T03:18:07.667Z,9.67
2019-03-01T03:22:22.153Z,16.10
2019-03-01T03:26:36.462Z,11.30
2019-03-01T03:30:51.013Z,11.73
2019-03-01T03:35:05.632Z,9.83
2019-03-01T03:39:20.243Z,10.17
2019-03-01T03:43:34.571Z,140.40
2019-03-01T03:47:48.989Z,28.30
2019-03-01T03:52:03.692Z,8.23
2019-03-01T03:56:04.731Z,8.40
2019-03-01T04:00:25.571Z,6.93
2019-03-01T04:04:46.534Z,7.80
2019-03-01T04:08:47.405Z,8.07
2019-03-01T04:13:08.290Z,8.93
2019-03-01T04:17:29.043Z,7.93
2019-03-01T04:21:49.791Z,7.50
2019-03-01T04:25:50.694Z,5.27
2019-03-01T04:30:12.715Z,6.97
2019-03-01T04:34:33.556Z,8.60
2019-03-01T04:38:47.494Z,7.10
2019-03-01T04:43:01.580Z,8.13
2019-03-01T04:47:15.436Z,6.07
2019-03-01T04:51:30.219Z,6.37
2019-03-01T04:55:44.786Z,6.53
2019-03-01T04:59:45.672Z,6.93
2019-03-01T05:04:20.437Z,5.70
2019-03-01T05:08:29.176Z,6.53
2019-03-01T05:12:50.140Z,9.60
2019-03-01T05:17:10.876Z,9.57
2019-03-01T05:21:31.877Z,8.47
2019-03-01T05:25:52.623Z,4.63
2019-03-01T05:30:33.316Z,8.83
2019-03-01T05:34:54.352Z,6.63
2019-03-01T05:39:08.546Z,4.83
2019-03-01T05:43:27.239Z,8.53
2019-03-01T05:47:41.982Z,12.87
2019-03-01T05:52:00.407Z,6.07
2019-03-01T05:56:18.767Z,5.70
2019-03-01T06:00:33.550Z,7.90
2019-03-01T06:04:47.926Z,8.03
2019-03-01T06:09:28.654Z,5.17
2019-03-01T06:14:11.187Z,5.37
2019-03-01T06:18:51.772Z,4.87
2019-03-01T06:23:32.361Z,6.73
2019-03-01T06:28:13.011Z,5.17
2019-03-01T06:32:54.002Z,9.27
2019-03-01T06:37:08.463Z,6.13
2019-03-01T06:41:25.044Z,4.47
2019-03-01T06:45:39.817Z,6.27
2019-03-01T06:49:59.018Z,6.33
2019-03-01T06:54:13.224Z,6.03
2019-03-01T06:58:27.794Z,4.23
2019-03-01T07:02:44.174Z,4.47
2019-03-01T07:06:58.894Z,6.07
2019-03-01T07:11:13.237Z,4.93
2019-03-01T07:15:27.718Z,5.20
2019-03-01T07:19:42.462Z,5.20
2019-03-01T07:23:57.029Z,5.03
2019-03-01T07:28:11.471Z,6.23
2019-03-01T07:32:26.066Z,6.30
2019-03-01T07:36:40.743Z,5.63
2019-03-01T07:40:55.366Z,6.23
2019-03-01T07:45:09.839Z,6.27
2019-03-01T07:49:24.599Z,5.67
2019-03-01T07:53:41.805Z,5.60
2019-03-01T07:57:55.328Z,5.20
2019-03-01T08:02:09.925Z,5.40
2019-03-01T08:06:24.456Z,5.30
2019-03-01T08:10:38.799Z,6.07
2019-03-01T08:14:53.444Z,5.07
2019-03-01T08:19:08.221Z,4.97
2019-03-01T08:23:22.855Z,6.60
2019-03-01T08:27:37.264Z,3.70
2019-03-01T08:31:52.830Z,3.27
2019-03-01T08:36:08.149Z,4.70
2019-03-01T08:40:21.902Z,4.37
2019-03-01T08:44:36.554Z,4.40
2019-03-01T08:48:51.169Z,7.07
2019-03-01T08:53:05.705Z,7.87
2019-03-01T08:57:22.676Z,5.60
2019-03-01T09:01:35.880Z,3.50
2019-03-01T09:05:50.350Z,5.07
2019-03-01T09:10:05.208Z,4.10
2019-03-01T09:14:22.751Z,4.23
2019-03-01T09:18:38.922Z,4.57
2019-03-01T09:22:53.820Z,5.47
2019-03-01T09:27:08.550Z,5.17
2019-03-01T09:31:09.549Z,7.10
2019-03-01T09:39:53.650Z,7.90
2019-03-01T09:44:08.583Z,9.87
2019-03-01T09:48:23.210Z,9.40
2019-03-01T09:52:37.729Z,11.40
2019-03-01T09:56:52.351Z,11.47
2019-03-01T10:01:06.885Z,9.73
2019-03-01T10:05:20.584Z,10.20
2019-03-01T10:09:35.280Z,9.20
2019-03-01T10:13:49.871Z,9.07
2019-03-01T10:18:04.380Z,6.90
2019-03-01T10:22:18.965Z,7.30
2019-03-01T10:26:33.630Z,6.47
2019-03-01T10:30:48.133Z,7.30
2019-03-01T10:35:02.817Z,6.73
2019-03-01T10:39:45.367Z,6.53
2019-03-01T10:44:06.262Z,8.60
2019-03-01T10:48:07.316Z,7.70
2019-03-01T10:52:28.154Z,7.80
2019-03-01T10:56:48.923Z,7.33
2019-03-01T11:01:09.764Z,7.37
2019-03-01T11:05:30.651Z,7.77
2019-03-01T11:09:51.479Z,8.13
2019-03-01T11:14:12.400Z,7.37
2019-03-01T11:18:33.168Z,7.03
2019-03-01T11:22:53.899Z,8.20
2019-03-01T11:27:14.739Z,7.07
2019-03-01T11:31:35.587Z,9.23
2019-03-01T11:35:56.384Z,7.40
2019-03-01T11:40:10.413Z,10.37
2019-03-01T11:44:24.775Z,9.03
2019-03-01T11:48:39.162Z,10.50
2019-03-01T11:52:53.566Z,13.77
2019-03-01T11:57:08.294Z,14.87
2019-03-01T12:01:22.762Z,16.37
2019-03-01T12:05:37.435Z,16.90
2019-03-01T12:09:38.973Z,17.30
2019-03-01T12:13:59.990Z,20.60
2019-03-01T12:18:20.732Z,27.30
2019-03-01T12:22:41.595Z,38.43
2019-03-01T12:27:02.929Z,40.53
2019-03-01T12:31:46.122Z,52.93
2019-03-01T12:40:41.365Z,68.47
2019-03-01T12:44:56.225Z,86.97
2019-03-01T12:49:13.151Z,93.10
2019-03-01T12:53:29.601Z,100.20
2019-03-01T12:57:44.572Z,95.27
2019-03-01T13:02:00.972Z,96.47
2019-03-01T13:06:15.682Z,105.40
2019-03-01T13:10:30.188Z,112.47
2019-03-01T13:14:44.833Z,115.97
2019-03-01T13:18:59.073Z,113.53
2019-03-01T13:23:01.025Z,113.60
2019-03-01T13:27:22.964Z,115.47
2019-03-01T13:31:43.948Z,114.93
2019-03-01T13:36:05.200Z,127.27
2019-03-01T13:40:20.939Z,129.10
2019-03-01T13:44:36.065Z,151.43
2019-03-01T13:48:54.096Z,142.40
2019-03-01T13:53:08.858Z,152.93
2019-03-01T13:57:23.139Z,146.93
2019-03-01T14:01:37.882Z,143.43
2019-03-01T14:05:54.859Z,147.10
2019-03-01T14:10:09.470Z,139.33
2019-03-01T14:14:10.458Z,140.83
2019-03-01T14:18:11.450Z,124.73
2019-03-01T14:22:32.209Z,114.57
2019-03-01T14:26:53.918Z,123.30
2019-03-01T14:31:15.642Z,121.33
2019-03-01T14:35:36.573Z,139.87
2019-03-01T14:39:51.688Z,120.93
2019-03-01T14:44:06.436Z,100.33
2019-03-01T14:48:20.339Z,95.33
2019-03-01T14:52:34.937Z,86.77
2019-03-01T14:56:49.569Z,85.80
2019-03-01T15:01:04.177Z,80.87
2019-03-01T15:05:19.878Z,84.83
2019-03-01T15:09:34.467Z,83.10
2019-03-01T15:13:49.126Z,78.33
2019-03-01T15:18:03.612Z,85.93
2019-03-01T15:22:18.310Z,88.07
2019-03-01T15:26:32.863Z,79.13
2019-03-01T15:30:47.541Z,88.50
2019-03-01T15:35:03.909Z,79.37
2019-03-01T15:39:20.020Z,85.57
2019-03-01T15:43:34.902Z,87.23
2019-03-01T15:47:50.384Z,86.63
2019-03-01T15:52:05.342Z,98.53
2019-03-01T15:56:07.194Z,93.47
2019-03-01T16:00:30.318Z,92.30
2019-03-01T16:04:52.021Z,102.40
2019-03-01T16:09:13.580Z,96.67
2019-03-01T16:13:14.475Z,100.23
2019-03-01T16:17:35.242Z,94.73
2019-03-01T16:21:56.253Z,103.33
2019-03-01T16:26:17.005Z,96.90
2019-03-01T16:30:37.781Z,100.40
2019-03-01T16:34:58.635Z,85.73
2019-03-01T16:39:13.311Z,96.30
2019-03-01T16:43:28.639Z,92.70
2019-03-01T16:47:44.358Z,86.93
2019-03-01T16:51:58.823Z,83.57
2019-03-01T16:56:13.525Z,92.87
2019-03-01T17:00:27.969Z,74.57
2019-03-01T17:04:42.447Z,74.73
2019-03-01T17:08:43.472Z,71.50
2019-03-01T17:12:44.551Z,70.43
2019-03-01T17:16:45.429Z,59.53
2019-03-01T17:21:06.283Z,58.23
2019-03-01T17:25:27.737Z,56.63
2019-03-01T17:29:49.869Z,63.30
2019-03-01T17:33:50.832Z,60.03
2019-03-01T17:38:11.662Z,61.57
2019-03-01T17:42:32.603Z,61.00
2019-03-01T17:46:53.427Z,63.13
2019-03-01T17:51:14.289Z,72.10
2019-03-01T17:55:37.612Z,60.97
2019-03-01T17:59:57.737Z,104.13
2019-03-01T18:04:18.591Z,80.53
2019-03-01T18:08:19.565Z,63.37
2019-03-01T18:12:21.230Z,62.47
2019-03-01T18:16:43.266Z,59.77
2019-03-01T18:21:04.114Z,52.60
2019-03-01T18:25:26.151Z,45.20
2019-03-01T18:29:47.515Z,40.87
2019-03-01T18:34:08.362Z,40.50
2019-03-01T18:38:09.460Z,40.73
2019-03-01T18:42:10.598Z,40.60
2019-03-01T18:46:14.666Z,33.43
2019-03-01T18:50:35.245Z,30.10
2019-03-01T18:54:56.071Z,34.53
2019-03-01T18:59:17.315Z,35.80
2019-03-01T19:03:41.471Z,41.07
2019-03-01T19:08:04.770Z,33.63
2019-03-01T19:12:05.574Z,38.67
2019-03-01T19:16:28.574Z,33.73
2019-03-01T19:21:09.091Z,42.77
2019-03-01T19:25:30.025Z,58.37
2019-03-01T19:29:50.915Z,91.10
2019-03-01T19:33:51.901Z,80.67
2019-03-01T19:38:12.875Z,75.27
2019-03-01T19:42:29.500Z,67.07
2019-03-01T19:46:44.111Z,69.20
2019-03-01T19:51:01.589Z,63.10
2019-03-01T19:55:14.940Z,56.20
2019-03-01T19:59:29.366Z,60.00
2019-03-01T20:03:45.441Z,51.03
2019-03-01T20:08:00.998Z,58.53
2019-03-01T20:12:15.715Z,54.00
2019-03-01T20:16:30.365Z,46.03
2019-03-01T20:20:44.924Z,41.77
2019-03-01T20:24:58.880Z,45.93
2019-03-01T20:29:12.825Z,43.90
2019-03-01T20:33:27.878Z,47.20
2019-03-01T20:37:42.409Z,50.13
2019-03-01T20:41:57.579Z,55.43
2019-03-01T20:46:12.102Z,64.47
2019-03-01T20:50:26.864Z,55.10
2019-03-01T20:54:41.446Z,52.67
2019-03-01T20:58:42.574Z,51.80
2019-03-01T21:03:03.420Z,56.50
2019-03-01T21:07:24.184Z,51.57
2019-03-01T21:11:45.059Z,49.80
2019-03-01T21:16:05.963Z,52.27
2019-03-01T21:20:26.883Z,56.33
2019-03-01T21:24:47.655Z,49.23
2019-03-01T21:29:08.989Z,53.70
2019-03-01T21:33:31.220Z,57.87
2019-03-01T21:37:34.722Z,62.63
2019-03-01T21:41:48.555Z,60.67
2019-03-01T21:46:02.444Z,58.43
2019-03-01T21:50:17.261Z,55.07
2019-03-01T21:54:32.330Z,61.50
2019-03-01T21:58:46.429Z,58.67
2019-03-01T22:02:48.939Z,53.93
2019-03-01T22:06:50.254Z,54.73
2019-03-01T22:10:51.269Z,57.93
2019-03-01T22:15:33.889Z,61.03
2019-03-01T22:19:54.814Z,56.80
2019-03-01T22:24:15.559Z,61.90
2019-03-01T22:28:37.072Z,61.63
2019-03-01T22:32:58.158Z,61.87
2019-03-01T22:37:18.904Z,55.73
2019-03-01T22:41:35.621Z,52.40
2019-03-01T22:45:49.714Z,61.57
2019-03-01T22:50:07.025Z,61.90
2019-03-01T22:54:20.749Z,56.27
2019-03-01T22:58:21.642Z,67.77
2019-03-01T23:02:44.384Z,64.37
2019-03-01T23:07:06.433Z,57.33
2019-03-01T23:11:28.653Z,54.87
2019-03-01T23:15:30.127Z,54.70
2019-03-01T23:19:51.693Z,61.00
2019-03-01T23:24:13.622Z,60.10
2019-03-01T23:28:34.362Z,57.47
2019-03-01T23:32:55.996Z,55.53
2019-03-01T23:37:17.782Z,60.67
2019-03-01T23:41:18.659Z,53.10
2019-03-01T23:45:39.517Z,55.20
2019-03-01T23:50:00.595Z,55.93
2019-03-01T23:54:21.491Z,53.30
2019-03-01T23:58:42.557Z,52.17
